Terminal Aerodrome Forecast
Issued by NWS

Home | Current Version | Previous Version | Text Only | Print | Product List | Glossary On
Versions: 1 2 3 4 5 6 7 8 9 10 11 12 13 14
000
FTAK31 PAJN 251133
TAFAGY
TAF
PAGY 251133Z 2512/2612 03012G22KT P6SM SCT040 OVC060
     FM251800 03009KT 4SM -RA BR SCT015 OVC030
     FM252100 21008KT P6SM -SHRA SCT020 OVC040
     FM260400 04008KT 6SM -SHRASN BR BKN015 OVC030
     FM261000 03009KT P6SM SCT025 OVC050
      AMD LTD TO CLD VIS AND WIND=

USA.gov is the U.S. government's official web portal to all federal, state and local government web resources and services.